Time;durP1;ratioP1;P1;durP2;ratioP2;P2;SDS_P1;SDS_P2;PMS_P1;PMS_P2;Temp;Humidity;BMP_temperature;BMP_pressure;BME280_temperature;BME280_humidity;BME280_pressure;Samples;Min_cycle;Max_cycle;Signal;HPM_P1;HPM_P2
2022/04/13 00:00:13;;;;;;;2.52;1.70;;;;;;;14.37;48.38;99392.45;1819591;78;21080;-61
2022/04/13 00:02:40;;;;;;;1.95;1.62;;;;;;;14.36;48.38;99400.97;1821009;78;21094;-60
2022/04/13 00:05:09;;;;;;;2.30;1.60;;;;;;;14.36;48.40;99395.62;1823110;78;21052;-61
2022/04/13 00:07:37;;;;;;;1.90;1.70;;;;;;;14.36;48.38;99396.14;1826072;78;21008;-60
2022/04/13 00:10:07;;;;;;;1.90;1.42;;;;;;;14.35;48.40;99400.67;1825747;78;21041;-60
2022/04/13 00:12:35;;;;;;;1.50;1.40;;;;;;;14.36;48.41;99400.15;1825720;78;21006;-60
2022/04/13 00:15:06;;;;;;;1.42;1.30;;;;;;;14.35;48.40;99405.17;1825741;78;21057;-60
2022/04/13 00:17:37;;;;;;;2.52;1.50;;;;;;;14.34;48.40;99400.34;1813869;78;21009;-60
2022/04/13 00:20:06;;;;;;;3.77;1.70;;;;;;;14.33;48.42;99398.71;1793885;79;21087;-59
2022/04/13 00:22:32;;;;;;;2.20;1.75;;;;;;;14.33;48.42;99396.53;1799386;79;21110;-59
2022/04/13 00:24:59;;;;;;;2.67;1.70;;;;;;;14.33;48.45;99401.38;1799136;79;20997;-60
2022/04/13 00:27:25;;;;;;;2.52;1.20;;;;;;;14.33;48.46;99405.87;1799219;79;21079;-60
2022/04/13 00:29:52;;;;;;;1.47;1.32;;;;;;;14.32;48.45;99393.56;1799257;79;21072;-60
2022/04/13 00:32:18;;;;;;;2.77;1.50;;;;;;;14.32;48.46;99384.21;1799236;79;21041;-60
2022/04/13 00:34:46;;;;;;;2.30;1.60;;;;;;;14.31;48.45;99387.41;1813768;78;21280;-60
2022/04/13 00:37:12;;;;;;;3.42;1.42;;;;;;;14.30;48.47;99384.41;1832016;77;21064;-60
2022/04/13 00:39:39;;;;;;;1.87;1.47;;;;;;;14.31;48.45;99388.73;1832128;77;21596;-64
2022/04/13 00:42:07;;;;;;;2.20;1.50;;;;;;;14.30;48.47;99388.41;1831749;78;21165;-60
2022/04/13 00:44:34;;;;;;;2.67;1.80;;;;;;;14.30;48.48;99379.06;1832069;77;21017;-59
2022/04/13 00:47:06;;;;;;;2.30;1.30;;;;;;;14.29;48.47;99380.10;1831859;78;21824;-59
2022/04/13 00:49:35;;;;;;;1.57;1.30;;;;;;;14.29;48.47;99388.12;1831896;77;21552;-59
2022/04/13 00:52:04;;;;;;;1.67;1.32;;;;;;;14.29;48.49;99384.11;1830919;77;21005;-59
2022/04/13 00:54:33;;;;;;;2.20;1.40;;;;;;;14.29;48.49;99379.25;1832181;78;21133;-60
2022/04/13 00:57:05;;;;;;;2.35;1.70;;;;;;;14.28;48.49;99381.63;1831805;78;20987;-59
2022/04/13 00:59:32;;;;;;;1.60;1.50;;;;;;;14.27;48.51;99367.95;1832142;77;21034;-60
2022/04/13 01:01:58;;;;;;;2.42;1.50;;;;;;;14.26;48.52;99373.81;1831722;78;21033;-61
2022/04/13 01:04:29;;;;;;;2.10;1.47;;;;;;;14.26;48.51;99377.00;1831953;77;20994;-60
2022/04/13 01:06:55;;;;;;;2.42;1.42;;;;;;;14.26;48.51;99371.66;1832151;78;21009;-60
2022/04/13 01:09:25;;;;;;;1.65;1.55;;;;;;;14.25;48.51;99368.14;1818032;78;20996;-59
2022/04/13 01:11:51;;;;;;;2.10;1.30;;;;;;;14.25;48.53;99365.99;1831855;78;21252;-59
2022/04/13 01:14:18;;;;;;;2.55;1.40;;;;;;;14.25;48.53;99375.34;1831730;78;21031;-60
2022/04/13 01:16:46;;;;;;;2.62;1.55;;;;;;;14.24;48.54;99377.20;1831843;78;21448;-60
2022/04/13 01:19:17;;;;;;;1.87;1.35;;;;;;;14.25;48.53;99378.02;1831642;78;21024;-60
2022/04/13 01:21:48;;;;;;;2.15;1.20;;;;;;;14.24;48.53;99377.20;1830168;78;21063;-61
2022/04/13 01:24:16;;;;;;;1.35;1.22;;;;;;;14.23;48.54;99362.70;1828762;78;21158;-59
2022/04/13 01:26:42;;;;;;;2.08;1.25;;;;;;;14.23;48.54;99363.52;1802035;78;20988;-61
2022/04/13 01:29:09;;;;;;;1.80;1.50;;;;;;;14.22;48.55;99363.22;1796478;79;21025;-60
2022/04/13 01:31:37;;;;;;;1.98;1.37;;;;;;;14.22;48.55;99368.56;1796568;79;21060;-62
2022/04/13 01:34:06;;;;;;;1.55;1.30;;;;;;;14.22;48.57;99354.39;1796579;79;21001;-60
2022/04/13 01:36:35;;;;;;;1.45;1.25;;;;;;;14.21;48.56;99364.23;1796698;79;20993;-59
2022/04/13 01:39:04;;;;;;;1.55;1.30;;;;;;;14.21;48.58;99374.92;1796520;79;21541;-60
2022/04/13 01:41:32;;;;;;;1.82;1.40;;;;;;;14.21;48.60;99369.57;1796549;79;21025;-60
2022/04/13 01:43:59;;;;;;;2.05;1.37;;;;;;;14.20;48.58;99359.93;1797701;78;21025;-60
2022/04/13 01:46:26;;;;;;;1.87;1.45;;;;;;;14.20;48.58;99373.28;1796743;79;20966;-60
2022/04/13 01:48:54;;;;;;;1.77;1.12;;;;;;;14.20;48.59;99364.42;1796673;79;22104;-60
2022/04/13 01:51:21;;;;;;;1.25;1.15;;;;;;;14.19;48.58;99370.29;1796626;79;21012;-62
2022/04/13 01:53:49;;;;;;;1.65;1.30;;;;;;;14.19;48.59;99374.30;1796728;79;20994;-60
2022/04/13 01:56:18;;;;;;;1.22;1.12;;;;;;;14.19;48.58;99363.61;1796520;79;21017;-60
2022/04/13 01:58:46;;;;;;;1.30;1.20;;;;;;;14.19;48.58;99360.13;1804099;78;21505;-60
2022/04/13 02:01:12;;;;;;;1.60;1.27;;;;;;;14.18;48.59;99374.48;1829197;78;21117;-60
2022/04/13 02:03:40;;;;;;;1.77;1.17;;;;;;;14.17;48.60;99381.69;1829151;78;20966;-59
2022/04/13 02:06:07;;;;;;;1.72;1.62;;;;;;;14.17;48.63;99385.70;1829255;78;21505;-59
2022/04/13 02:08:34;;;;;;;1.60;1.10;;;;;;;14.16;48.63;99378.72;1829275;78;21001;-60
2022/04/13 02:11:03;;;;;;;1.30;1.20;;;;;;;14.17;48.62;99387.03;1829279;77;20974;-60
2022/04/13 02:13:29;;;;;;;1.10;1.00;;;;;;;14.16;48.61;99378.72;1829151;78;21120;-60
2022/04/13 02:15:57;;;;;;;1.90;1.37;;;;;;;14.16;48.63;99374.72;1825096;78;21544;-59
2022/04/13 02:18:24;;;;;;;1.20;1.10;;;;;;;14.15;48.63;99383.73;1796630;79;21036;-60
2022/04/13 02:20:51;;;;;;;1.55;1.10;;;;;;;14.14;48.65;99380.25;1795897;79;21085;-59
2022/04/13 02:23:19;;;;;;;2.00;1.20;;;;;;;14.14;48.66;99379.44;1793141;80;21037;-60
2022/04/13 02:25:47;;;;;;;1.77;1.30;;;;;;;14.15;48.65;99379.73;1793198;80;21038;-59
2022/04/13 02:28:13;;;;;;;1.40;1.30;;;;;;;14.14;48.65;99377.58;1793008;80;21276;-60
2022/04/13 02:30:40;;;;;;;1.55;1.25;;;;;;;14.14;48.67;99376.77;1793226;80;21549;-59
2022/04/13 02:33:06;;;;;;;1.82;1.55;;;;;;;14.14;48.66;99382.11;1794244;78;21147;-59
2022/04/13 02:35:33;;;;;;;1.15;1.05;;;;;;;14.13;48.66;99372.43;1793233;80;21033;-60
2022/04/13 02:38:00;;;;;;;1.80;1.50;;;;;;;14.12;48.67;99374.28;1793232;79;21203;-60
2022/04/13 02:40:26;;;;;;;1.12;1.00;;;;;;;14.13;48.69;99375.10;1793187;79;21638;-60
2022/04/13 02:42:55;;;;;;;1.45;1.25;;;;;;;14.13;48.69;99381.26;1793326;80;21060;-60
2022/04/13 02:45:21;;;;;;;1.10;1.00;;;;;;;14.12;48.67;99376.95;1793542;80;21072;-60
2022/04/13 02:47:47;;;;;;;1.90;1.40;;;;;;;14.12;48.69;99378.30;1793613;80;21495;-60
2022/04/13 02:50:16;;;;;;;1.55;1.12;;;;;;;14.11;48.69;99384.64;1794383;78;21135;-60
2022/04/13 02:52:43;;;;;;;1.50;1.20;;;;;;;14.12;48.70;99378.81;1793543;80;21619;-60
2022/04/13 02:55:11;;;;;;;1.22;1.12;;;;;;;14.11;48.71;99390.51;1793398;79;21045;-61
2022/04/13 02:57:38;;;;;;;1.32;1.17;;;;;;;14.10;48.71;99378.16;1793419;80;21006;-59
2022/04/13 03:00:06;;;;;;;1.27;1.02;;;;;;;14.10;48.70;99385.69;1819381;78;21426;-60
2022/04/13 03:02:34;;;;;;;2.05;1.30;;;;;;;14.10;48.71;99383.02;1826224;78;21076;-60
2022/04/13 03:05:00;;;;;;;1.20;1.10;;;;;;;14.10;48.71;99380.83;1826166;78;20990;-60
2022/04/13 03:07:30;;;;;;;1.35;1.22;;;;;;;14.09;48.74;99377.86;1824752;78;21064;-60
2022/04/13 03:09:56;;;;;;;1.30;1.20;;;;;;;14.09;48.75;99389.88;1825976;78;21520;-59
2022/04/13 03:12:24;;;;;;;1.00;1.00;;;;;;;14.07;48.77;99380.73;1825799;78;21013;-60
2022/04/13 03:14:51;;;;;;;1.47;1.12;;;;;;;14.07;48.78;99382.06;1825862;78;21113;-60
2022/04/13 03:17:17;;;;;;;1.05;0.95;;;;;;;14.07;48.78;99382.59;1825196;78;22211;-60
2022/04/13 03:19:44;;;;;;;1.15;1.00;;;;;;;14.06;48.78;99383.59;1819073;78;21034;-60
2022/04/13 03:22:12;;;;;;;2.00;1.20;;;;;;;14.06;48.79;99388.94;1829162;78;21216;-59
2022/04/13 03:24:39;;;;;;;1.17;1.07;;;;;;;14.05;48.80;99380.11;1818823;78;21088;-60
2022/04/13 03:27:05;;;;;;;1.22;1.12;;;;;;;14.07;48.79;99381.25;1799214;79;21070;-61
2022/04/13 03:29:32;;;;;;;1.90;1.22;;;;;;;14.06;48.78;99380.92;1799181;79;20993;-60
2022/04/13 03:32:00;;;;;;;1.30;1.20;;;;;;;14.05;48.80;99380.62;1799250;79;21497;-61
2022/04/13 03:34:28;;;;;;;1.62;1.10;;;;;;;14.04;48.81;99382.48;1799301;79;21507;-59
2022/04/13 03:36:54;;;;;;;1.22;1.12;;;;;;;14.04;48.82;99381.63;1799198;79;21008;-59
2022/04/13 03:39:22;;;;;;;1.52;1.10;;;;;;;14.04;48.85;99377.63;1799296;79;21010;-59
2022/04/13 03:41:49;;;;;;;1.27;1.10;;;;;;;14.03;48.86;99377.33;1800305;78;21567;-60
2022/04/13 03:44:17;;;;;;;1.20;1.10;;;;;;;14.02;48.86;99376.48;1799246;79;21020;-59
2022/04/13 03:46:44;;;;;;;1.40;1.15;;;;;;;14.03;48.86;99374.66;1799161;79;21021;-60
2022/04/13 03:49:12;;;;;;;1.40;1.20;;;;;;;14.03;48.87;99367.47;1799148;79;21059;-60
2022/04/13 03:51:40;;;;;;;1.32;1.00;;;;;;;14.02;48.87;99379.16;1799203;79;21037;-59
2022/04/13 03:54:07;;;;;;;1.50;1.37;;;;;;;14.02;48.86;99373.00;1799171;79;21504;-60
2022/04/13 03:56:34;;;;;;;1.20;1.10;;;;;;;14.01;48.88;99376.19;1799251;79;21291;-61
2022/04/13 03:59:01;;;;;;;1.17;1.02;;;;;;;14.01;48.89;99373.52;1812251;78;20989;-61
2022/04/13 04:01:27;;;;;;;1.25;1.15;;;;;;;14.01;48.89;99387.39;1832011;78;21001;-60
2022/04/13 04:03:55;;;;;;;1.37;1.27;;;;;;;14.00;48.91;99377.72;1832040;78;21056;-61
2022/04/13 04:06:21;;;;;;;1.30;1.20;;;;;;;14.00;48.91;99391.07;1831709;78;21032;-59
2022/04/13 04:08:48;;;;;;;0.90;0.90;;;;;;;13.99;48.92;99382.77;1831865;78;21014;-60
2022/04/13 04:11:16;;;;;;;1.57;1.05;;;;;;;13.98;48.91;99387.26;1831839;78;21489;-60
2022/04/13 04:13:44;;;;;;;1.42;1.22;;;;;;;13.99;48.92;99388.11;1832231;78;20976;-60
2022/04/13 04:16:10;;;;;;;1.55;1.10;;;;;;;13.98;48.93;99385.92;1831099;78;21106;-59
2022/04/13 04:18:37;;;;;;;1.22;1.12;;;;;;;13.99;48.93;99393.45;1832021;78;22001;-60
2022/04/13 04:21:04;;;;;;;0.90;0.90;;;;;;;13.98;48.93;99400.61;1831865;78;20997;-60
2022/04/13 04:23:31;;;;;;;1.72;1.20;;;;;;;13.98;48.92;99394.45;1831732;77;21122;-60
2022/04/13 04:25:57;;;;;;;0.90;0.90;;;;;;;13.99;48.92;99393.45;1831825;78;21009;-60
2022/04/13 04:28:24;;;;;;;1.10;0.93;;;;;;;13.99;48.93;99389.44;1831881;78;21131;-59
2022/04/13 04:30:52;;;;;;;1.32;1.10;;;;;;;13.98;48.92;99397.13;1831800;77;20974;-60
2022/04/13 04:33:20;;;;;;;0.95;0.93;;;;;;;13.98;48.94;99406.47;1809503;78;21481;-60
2022/04/13 04:35:51;;;;;;;1.57;1.35;;;;;;;13.98;48.93;99381.10;1799180;79;21029;-60
2022/04/13 04:38:19;;;;;;;1.05;0.93;;;;;;;13.98;48.94;99410.48;1799308;79;21052;-59
2022/04/13 04:40:46;;;;;;;1.20;1.10;;;;;;;13.96;48.95;99419.53;1799133;79;21139;-59
2022/04/13 04:43:12;;;;;;;1.20;1.00;;;;;;;13.96;48.95;99416.86;1799128;79;20994;-60
2022/04/13 04:45:39;;;;;;;1.02;1.02;;;;;;;13.96;48.95;99399.50;1799423;79;21001;-60
2022/04/13 04:48:07;;;;;;;1.32;1.00;;;;;;;13.95;48.97;99409.85;1799181;79;20986;-59
2022/04/13 04:50:35;;;;;;;1.37;1.10;;;;;;;13.95;48.99;99412.52;1800242;78;21025;-59
2022/04/13 04:53:02;;;;;;;0.90;0.90;;;;;;;13.95;48.99;99416.53;1799179;79;21118;-60
2022/04/13 04:55:29;;;;;;;1.42;1.07;;;;;;;13.94;49.00;99416.20;1799109;79;21068;-60
2022/04/13 04:57:55;;;;;;;1.02;0.95;;;;;;;13.95;48.98;99419.20;1803084;78;20994;-59
2022/04/13 05:00:22;;;;;;;1.02;0.90;;;;;;;13.95;48.99;99413.86;1831753;77;21077;-59
2022/04/13 05:02:50;;;;;;;1.32;0.88;;;;;;;13.95;49.01;99411.70;1832150;77;21005;-59
2022/04/13 05:05:17;;;;;;;1.02;0.98;;;;;;;13.95;49.00;99418.38;1831799;78;21188;-59
2022/04/13 05:07:44;;;;;;;1.57;1.12;;;;;;;13.94;49.00;99397.51;1830797;78;20993;-59
2022/04/13 05:10:12;;;;;;;1.10;1.00;;;;;;;13.95;49.00;99403.70;1831769;78;20993;-59
2022/04/13 05:12:49;;;;;;;0.95;0.88;;;;;;;13.95;49.01;99405.03;1831899;77;21513;-60
2022/04/13 05:15:17;;;;;;;1.30;1.20;;;;;;;13.95;49.04;99409.03;1831913;77;21503;-59
2022/04/13 05:17:44;;;;;;;1.10;1.00;;;;;;;13.94;49.00;99416.20;1831931;78;21284;-60
2022/04/13 05:20:13;;;;;;;1.22;1.00;;;;;;;13.95;49.02;99425.88;1831762;78;21532;-60
2022/04/13 05:22:39;;;;;;;0.90;0.90;;;;;;;13.95;48.99;99427.21;1828468;78;21038;-60
2022/04/13 05:25:12;;;;;;;0.90;0.90;;;;;;;13.95;49.00;99426.39;1825167;78;21020;-59
2022/04/13 05:27:41;;;;;;;1.10;1.00;;;;;;;13.94;49.02;99425.55;1826022;78;21550;-60
2022/04/13 05:30:10;;;;;;;1.75;1.10;;;;;;;13.94;49.05;99432.22;1818444;78;21128;-60
2022/04/13 05:32:51;;;;;;;1.40;0.95;;;;;;;13.94;49.03;99422.06;1825905;78;20975;-60
2022/04/13 05:35:17;;;;;;;1.02;0.93;;;;;;;13.94;49.02;99422.88;1822674;77;21021;-60
2022/04/13 05:37:44;;;;;;;0.95;0.95;;;;;;;13.94;49.04;99419.39;1825692;78;20998;-61
2022/04/13 05:40:12;;;;;;;1.00;0.90;;;;;;;13.92;49.04;99418.25;1818632;78;21001;-61
2022/04/13 05:42:39;;;;;;;0.80;0.80;;;;;;;13.93;49.06;99417.24;1793220;79;21261;-60
2022/04/13 05:45:08;;;;;;;0.80;0.80;;;;;;;13.93;49.08;99422.58;1793461;80;21049;-62
2022/04/13 05:47:37;;;;;;;1.00;0.90;;;;;;;13.93;49.07;99421.25;1793209;80;20982;-61
2022/04/13 05:50:04;;;;;;;0.85;0.80;;;;;;;13.94;49.09;99433.56;1793332;80;21033;-62
2022/04/13 05:52:32;;;;;;;0.90;0.90;;;;;;;13.94;49.09;99432.74;1793661;80;21041;-60
2022/04/13 05:55:00;;;;;;;0.98;0.90;;;;;;;13.93;49.09;99429.25;1793283;79;21458;-60
2022/04/13 05:57:26;;;;;;;1.20;0.90;;;;;;;13.94;49.10;99428.73;1794282;78;21030;-60
2022/04/13 05:59:53;;;;;;;0.90;0.90;;;;;;;13.92;49.11;99432.94;1823359;78;21068;-61
2022/04/13 06:02:31;;;;;;;0.95;0.90;;;;;;;13.94;49.12;99436.23;1825800;78;21992;-60
2022/04/13 06:04:59;;;;;;;1.10;1.00;;;;;;;13.94;49.13;99442.91;1825718;78;20990;-60
2022/04/13 06:07:25;;;;;;;1.12;1.05;;;;;;;13.93;49.13;99435.12;1825633;78;21075;-60
2022/04/13 06:09:52;;;;;;;0.95;0.90;;;;;;;13.94;49.16;99442.09;1825644;78;21017;-60
2022/04/13 06:12:22;;;;;;;1.05;0.90;;;;;;;13.92;49.15;99443.62;1825812;78;21655;-60
2022/04/13 06:14:50;;;;;;;1.15;1.00;;;;;;;13.93;49.16;99437.27;1809959;78;21525;-60
2022/04/13 06:17:17;;;;;;;0.90;0.90;;;;;;;13.93;49.17;99441.27;1793544;80;21024;-61
2022/04/13 06:19:43;;;;;;;0.90;0.90;;;;;;;13.94;49.17;99441.57;1793112;80;21257;-61
2022/04/13 06:22:11;;;;;;;0.98;0.98;;;;;;;13.93;49.20;99451.95;1793953;79;21628;-60
2022/04/13 06:24:38;;;;;;;1.32;1.02;;;;;;;13.93;49.18;99451.95;1799452;79;21009;-61
2022/04/13 06:27:05;;;;;;;1.40;1.30;;;;;;;13.93;49.18;99446.61;1798964;79;20989;-61
2022/04/13 06:29:32;;;;;;;0.72;0.72;;;;;;;13.94;49.20;99463.45;1799184;79;20978;-60
2022/04/13 06:31:59;;;;;;;1.00;0.98;;;;;;;13.94;49.21;99460.78;1800112;78;21115;-60
2022/04/13 06:34:26;;;;;;;1.67;0.95;;;;;;;13.94;49.21;99466.13;1818229;78;21579;-60
2022/04/13 06:37:39;;;;;;;0.80;0.80;;;;;;;13.98;49.24;99459.36;1870386;76;27939;-60
2022/04/13 06:40:07;;;;;;;1.02;0.93;;;;;;;13.95;49.23;99470.45;1826454;78;20998;-59
2022/04/13 06:42:36;;;;;;;1.20;1.10;;;;;;;13.95;49.21;99467.27;1826521;78;21140;-61
2022/04/13 06:45:05;;;;;;;0.90;0.90;;;;;;;13.95;49.20;99473.95;1826369;78;21029;-60
2022/04/13 06:47:33;;;;;;;1.05;0.98;;;;;;;13.95;49.22;99470.45;1826505;78;20996;-60
2022/04/13 06:50:01;;;;;;;0.90;0.90;;;;;;;13.94;49.23;99472.28;1795635;78;21061;-60
2022/04/13 06:52:33;;;;;;;1.02;0.93;;;;;;;13.95;49.25;99479.80;1794040;80;20991;-59
2022/04/13 06:54:59;;;;;;;1.10;1.00;;;;;;;13.94;49.26;99474.95;1775104;80;21103;-60
2022/04/13 06:57:26;;;;;;;0.93;0.90;;;;;;;13.94;49.27;99476.29;1804812;78;20978;-61
2022/04/13 06:59:52;;;;;;;0.85;0.85;;;;;;;13.93;49.29;99474.66;1826503;78;20966;-61
2022/04/13 07:02:19;;;;;;;1.05;1.00;;;;;;;13.94;49.27;99478.95;1826479;78;21030;-61
2022/04/13 07:04:45;;;;;;;0.70;0.70;;;;;;;13.94;49.29;99482.14;1825371;78;21521;-60
2022/04/13 07:07:12;;;;;;;1.10;1.00;;;;;;;13.94;49.30;99484.30;1826415;78;21124;-60
2022/04/13 07:09:38;;;;;;;1.15;0.95;;;;;;;13.94;49.30;99492.31;1826493;78;20957;-60
2022/04/13 07:12:06;;;;;;;1.10;1.00;;;;;;;13.95;49.29;99493.16;1826694;78;21080;-60
2022/04/13 07:14:33;;;;;;;0.93;0.85;;;;;;;13.94;49.33;99490.16;1826960;78;21022;-61
2022/04/13 07:16:59;;;;;;;0.90;0.90;;;;;;;13.94;49.34;99488.30;1826819;78;21060;-62
2022/04/13 07:19:26;;;;;;;0.80;0.80;;;;;;;13.94;49.33;99505.66;1826700;78;21870;-60
2022/04/13 07:21:53;;;;;;;1.12;0.90;;;;;;;13.93;49.36;99505.36;1825277;78;21056;-61
2022/04/13 07:24:19;;;;;;;0.80;0.80;;;;;;;13.93;49.36;99504.55;1826379;78;21009;-60
2022/04/13 07:26:47;;;;;;;1.12;1.00;;;;;;;13.94;49.36;99502.17;1826884;78;21048;-61
2022/04/13 07:29:14;;;;;;;1.00;1.00;;;;;;;13.93;49.37;99500.55;1826412;78;20978;-61
2022/04/13 07:31:40;;;;;;;0.95;0.90;;;;;;;13.94;49.36;99506.18;1826595;78;21239;-60
2022/04/13 07:34:07;;;;;;;0.93;0.85;;;;;;;13.93;49.37;99505.36;1826440;78;21553;-61
2022/04/13 07:36:34;;;;;;;1.05;0.95;;;;;;;13.93;49.37;99498.69;1829141;78;20981;-59
2022/04/13 07:39:02;;;;;;;0.98;0.88;;;;;;;13.93;49.39;99512.04;1838820;76;21001;-60
2022/04/13 07:41:29;;;;;;;1.00;0.90;;;;;;;13.93;49.41;99512.56;1832638;78;21064;-60
2022/04/13 07:43:57;;;;;;;1.10;1.00;;;;;;;13.93;49.41;99504.03;1832582;78;21128;-60
2022/04/13 07:46:29;;;;;;;0.75;0.75;;;;;;;13.93;49.42;99510.70;1832547;78;21376;-60
2022/04/13 07:48:56;;;;;;;1.32;1.10;;;;;;;13.94;49.41;99513.67;1832287;78;20986;-60
2022/04/13 07:51:23;;;;;;;0.80;0.80;;;;;;;13.93;49.43;99525.39;1832130;77;21604;-60
2022/04/13 07:53:49;;;;;;;1.10;1.00;;;;;;;13.93;49.44;99522.72;1832040;77;21009;-60
2022/04/13 07:56:17;;;;;;;0.98;0.90;;;;;;;13.93;49.43;99526.73;1823700;77;21060;-60
2022/04/13 07:58:44;;;;;;;0.70;0.70;;;;;;;13.92;49.44;99519.72;1826052;78;21025;-61
2022/04/13 08:01:11;;;;;;;1.60;0.95;;;;;;;13.93;49.43;99524.06;1830269;78;21076;-61
2022/04/13 08:03:37;;;;;;;1.00;0.90;;;;;;;13.92;49.44;99521.06;1830219;78;21125;-60
2022/04/13 08:06:03;;;;;;;0.80;0.80;;;;;;;13.93;49.46;99536.08;1830120;78;21012;-60
2022/04/13 08:08:30;;;;;;;1.07;1.02;;;;;;;13.93;49.45;99532.59;1830362;78;21138;-61
2022/04/13 08:10:58;;;;;;;0.90;0.90;;;;;;;13.93;49.48;99542.75;1830162;78;20978;-61
2022/04/13 08:13:24;;;;;;;1.45;1.35;;;;;;;13.92;49.46;99540.27;1820797;78;21041;-60
2022/04/13 08:15:51;;;;;;;1.00;0.98;;;;;;;13.92;49.49;99541.09;1799458;79;21536;-60
2022/04/13 08:18:18;;;;;;;0.82;0.82;;;;;;;13.93;49.49;99539.27;1799312;79;21533;-60
2022/04/13 08:20:45;;;;;;;1.00;1.00;;;;;;;13.91;49.49;99542.13;1799382;79;21137;-60
2022/04/13 08:23:11;;;;;;;1.00;1.00;;;;;;;13.91;49.49;99534.11;1799439;79;21056;-60
2022/04/13 08:25:39;;;;;;;1.00;0.82;;;;;;;13.91;49.51;99540.78;1799364;79;21021;-60
2022/04/13 08:28:07;;;;;;;1.12;1.02;;;;;;;13.92;49.52;99542.42;1799185;79;21033;-60
2022/04/13 08:30:34;;;;;;;0.93;0.90;;;;;;;13.91;49.52;99544.80;1800592;78;21457;-60
2022/04/13 08:33:01;;;;;;;0.88;0.85;;;;;;;13.92;49.53;99553.10;1799198;79;22121;-60
2022/04/13 08:35:27;;;;;;;1.10;1.00;;;;;;;13.92;49.52;99552.28;1799184;79;21174;-60
2022/04/13 08:37:54;;;;;;;1.80;1.10;;;;;;;13.92;49.54;99553.63;1794231;78;21001;-62
2022/04/13 08:40:22;;;;;;;0.90;0.90;;;;;;;13.93;49.54;99559.30;1824805;78;21026;-60
2022/04/13 08:43:00;;;;;;;1.07;1.00;;;;;;;13.92;49.53;99556.29;1826063;78;21514;-61
2022/04/13 08:45:32;;;;;;;1.27;0.90;;;;;;;13.92;49.53;99558.96;1823066;78;21778;-60
2022/04/13 08:48:00;;;;;;;1.25;1.02;;;;;;;13.92;49.54;99562.97;1805225;78;21009;-60
2022/04/13 08:50:31;;;;;;;1.35;1.12;;;;;;;13.91;49.58;99556.81;1793398;79;21049;-60
2022/04/13 08:53:02;;;;;;;0.98;0.90;;;;;;;13.93;49.56;99555.28;1794000;80;21029;-62
2022/04/13 08:55:31;;;;;;;1.10;1.00;;;;;;;13.93;49.58;99565.97;1793810;79;21508;-60
2022/04/13 08:58:13;;;;;;;0.88;0.88;;;;;;;13.92;49.56;99561.11;1793212;79;21135;-60
2022/04/13 09:00:44;;;;;;;0.98;0.98;;;;;;;13.93;49.58;99557.95;1793042;79;20994;-59
2022/04/13 09:03:42;;;;;;;0.90;0.90;;;;;;;13.92;49.58;99561.11;1793342;80;21021;-60
2022/04/13 09:06:10;;;;;;;0.90;0.90;;;;;;;13.92;49.58;99561.11;1793255;80;21026;-61
2022/04/13 09:08:57;;;;;;;0.90;0.90;;;;;;;13.91;49.60;99566.16;1793264;79;21018;-61
2022/04/13 09:11:25;;;;;;;1.17;1.07;;;;;;;13.91;49.60;99579.51;1793262;80;21002;-61
2022/04/13 09:13:51;;;;;;;1.27;1.00;;;;;;;13.90;49.61;99564.48;1748239;80;21021;-61
2022/04/13 09:16:18;;;;;;;1.00;0.90;;;;;;;13.91;49.64;99565.34;1793245;80;21033;-60
2022/04/13 09:18:45;;;;;;;0.98;0.98;;;;;;;13.91;49.64;99580.84;1793288;80;21029;-61
2022/04/13 09:21:17;;;;;;;1.20;1.10;;;;;;;13.91;49.63;99567.48;1794348;78;21005;-60
2022/04/13 09:23:44;;;;;;;2.00;1.20;;;;;;;13.91;49.63;99568.01;1793652;80;21095;-60
2022/04/13 09:26:11;;;;;;;1.25;1.10;;;;;;;13.91;49.65;99566.67;1793370;80;21544;-60
2022/04/13 09:28:37;;;;;;;1.00;0.90;;;;;;;13.91;49.65;99574.16;1793377;80;21017;-60
2022/04/13 09:31:04;;;;;;;1.17;1.07;;;;;;;13.91;49.64;99575.50;1793200;80;20990;-60
2022/04/13 09:33:31;;;;;;;1.07;1.00;;;;;;;13.92;49.64;99582.48;1793315;79;21083;-60
2022/04/13 09:35:58;;;;;;;1.37;1.27;;;;;;;13.92;49.64;99574.47;1793175;79;21126;-60
2022/04/13 09:38:24;;;;;;;1.22;1.12;;;;;;;13.93;49.66;99586.00;1805018;76;20954;-60
2022/04/13 09:40:52;;;;;;;1.62;1.05;;;;;;;13.94;49.64;99584.44;1831922;77;20998;-59
2022/04/13 09:43:22;;;;;;;0.90;0.90;;;;;;;13.93;49.65;99585.48;1831726;78;20985;-59
2022/04/13 09:45:50;;;;;;;1.20;1.10;;;;;;;13.94;49.65;99590.30;1832223;77;21060;-60
2022/04/13 09:48:24;;;;;;;1.00;1.00;;;;;;;13.93;49.66;99592.16;1831811;78;21381;-60
2022/04/13 09:50:51;;;;;;;1.00;1.00;;;;;;;13.94;49.65;99587.11;1831988;78;20981;-60
2022/04/13 09:53:20;;;;;;;1.45;1.00;;;;;;;13.94;49.65;99589.78;1799114;79;21075;-59
2022/04/13 09:55:52;;;;;;;1.47;1.30;;;;;;;13.95;49.65;99595.45;1800224;78;21017;-59
2022/04/13 09:58:22;;;;;;;1.15;1.07;;;;;;;13.95;49.68;99596.79;1799142;79;21560;-61
2022/04/13 10:01:00;;;;;;;1.20;1.10;;;;;;;13.95;49.68;99595.45;1799199;79;21097;-61
2022/04/13 10:03:26;;;;;;;1.07;1.00;;;;;;;13.96;49.67;99598.95;1798979;79;21013;-60
2022/04/13 10:05:58;;;;;;;0.90;0.90;;;;;;;13.96;49.67;99604.28;1799119;79;21016;-61
2022/04/13 10:08:27;;;;;;;1.12;1.00;;;;;;;13.95;49.68;99599.46;1784018;79;21573;-62
2022/04/13 10:10:57;;;;;;;1.20;1.10;;;;;;;13.97;49.69;99612.63;1799270;79;21466;-60
2022/04/13 10:13:39;;;;;;;1.07;0.98;;;;;;;13.96;49.69;99608.29;1800207;78;21272;-60
2022/04/13 10:16:07;;;;;;;1.50;1.17;;;;;;;13.96;49.69;99617.64;1799019;79;21053;-60
2022/04/13 10:18:56;;;;;;;1.35;1.10;;;;;;;13.96;49.68;99621.16;1799125;79;21032;-60
2022/04/13 10:21:51;;;;;;;0.93;0.90;;;;;;;13.98;49.68;99613.45;1799276;79;21076;-59
2022/04/13 10:24:29;;;;;;;0.90;0.90;;;;;;;13.97;49.70;99615.30;1799433;79;21108;-60
2022/04/13 10:27:15;;;;;;;1.17;1.10;;;;;;;13.96;49.71;99618.48;1799122;79;21203;-61
2022/04/13 10:29:44;;;;;;;1.10;0.98;;;;;;;13.96;49.75;99622.98;1800553;78;21049;-59
2022/04/13 10:32:14;;;;;;;1.20;1.10;;;;;;;13.95;49.75;99626.17;1799248;79;21017;-60
2022/04/13 10:34:50;;;;;;;1.10;0.90;;;;;;;13.96;49.77;99633.17;1799427;79;21055;-59
2022/04/13 10:37:23;;;;;;;1.25;1.10;;;;;;;13.96;49.76;99626.98;1796895;78;20987;-60
2022/04/13 10:39:54;;;;;;;1.15;1.00;;;;;;;13.96;49.79;99633.17;1823773;78;21778;-60
2022/04/13 10:42:21;;;;;;;1.12;1.02;;;;;;;13.96;49.79;99630.50;1825643;78;21091;-60
2022/04/13 10:44:57;;;;;;;1.20;1.10;;;;;;;13.96;49.79;99639.85;1825837;78;21064;-60
2022/04/13 10:47:50;;;;;;;1.10;1.07;;;;;;;13.98;49.82;99642.30;1824160;78;21493;-59
2022/04/13 10:50:30;;;;;;;1.20;1.10;;;;;;;13.98;49.80;99640.15;1826006;78;20989;-61
2022/04/13 10:53:16;;;;;;;1.10;1.00;;;;;;;13.98;49.82;99643.64;1806002;78;20986;-60
2022/04/13 10:55:44;;;;;;;0.85;0.85;;;;;;;13.97;49.83;99642.00;1822713;78;21000;-60
2022/04/13 10:58:34;;;;;;;0.82;0.82;;;;;;;13.98;49.84;99631.62;1821516;78;21009;-60
2022/04/13 11:01:05;;;;;;;0.85;0.85;;;;;;;13.99;49.85;99641.30;1825747;78;21033;-60
2022/04/13 11:03:36;;;;;;;1.12;1.02;;;;;;;13.99;49.87;99644.48;1814275;78;21049;-59
2022/04/13 11:06:06;;;;;;;1.12;1.02;;;;;;;14.00;49.88;99648.80;1793134;79;21104;-61
2022/04/13 11:08:50;;;;;;;0.90;0.90;;;;;;;14.00;49.88;99649.61;1793154;80;21041;-61
2022/04/13 11:11:19;;;;;;;0.93;0.93;;;;;;;14.01;49.88;99647.79;1793255;79;21029;-61
2022/04/13 11:13:49;;;;;;;1.00;0.90;;;;;;;14.01;49.89;99639.78;1793300;79;20970;-60
2022/04/13 11:16:19;;;;;;;0.90;0.90;;;;;;;14.01;49.89;99652.62;1793192;79;21025;-60
2022/04/13 11:19:07;;;;;;;0.90;0.90;;;;;;;14.02;49.90;99649.42;1793225;79;21017;-60
2022/04/13 11:21:55;;;;;;;1.07;0.90;;;;;;;14.02;49.90;99648.91;1794391;78;21576;-61
2022/04/13 11:24:39;;;;;;;0.90;0.90;;;;;;;14.03;49.91;99651.91;1793359;80;21022;-61
2022/04/13 11:27:11;;;;;;;1.00;1.00;;;;;;;14.04;49.92;99651.39;1783415;80;20994;-60
2022/04/13 11:29:41;;;;;;;1.10;1.00;;;;;;;14.04;49.90;99648.23;1793506;79;21072;-60
2022/04/13 11:32:16;;;;;;;1.10;1.00;;;;;;;14.04;49.91;99656.73;1793386;80;21867;-59
2022/04/13 11:34:49;;;;;;;1.50;0.80;;;;;;;14.03;49.93;99645.75;1793270;80;21104;-60
2022/04/13 11:37:23;;;;;;;0.90;0.90;;;;;;;14.04;49.94;99658.07;1795130;77;21025;-60
2022/04/13 11:39:59;;;;;;;1.15;1.05;;;;;;;14.04;49.92;99655.41;1823290;78;20974;-61
2022/04/13 11:42:40;;;;;;;0.70;0.70;;;;;;;14.04;49.94;99655.41;1805938;78;21015;-60